createdAt,value
2024-05-09T00:00:47.997Z,95829.00
2024-05-09T00:01:47.912Z,95829.00
2024-05-09T00:02:47.997Z,95829.00
2024-05-09T00:03:47.992Z,95828.00
2024-05-09T00:04:47.995Z,95830.00
2024-05-09T00:05:47.939Z,95827.00
2024-05-09T00:06:47.880Z,95829.00
2024-05-09T00:07:47.924Z,95827.00
2024-05-09T00:08:47.878Z,95824.00
2024-05-09T00:09:47.903Z,95824.00
2024-05-09T00:10:48.025Z,95823.00
2024-05-09T00:11:48.040Z,95822.00
2024-05-09T00:12:47.891Z,95821.00
2024-05-09T00:13:47.946Z,95821.00
2024-05-09T00:14:47.892Z,95820.00
2024-05-09T00:15:47.895Z,95820.00
2024-05-09T00:16:47.941Z,95819.00
2024-05-09T00:17:47.993Z,95816.00
2024-05-09T00:18:47.950Z,95815.00
2024-05-09T00:19:47.968Z,95814.00
2024-05-09T00:20:47.946Z,95813.00
2024-05-09T00:21:47.889Z,95813.00
2024-05-09T00:22:47.964Z,95811.00
2024-05-09T00:23:47.895Z,95813.00
2024-05-09T00:24:47.897Z,95813.00
2024-05-09T00:25:47.961Z,95811.00
2024-05-09T00:26:47.926Z,95811.00
2024-05-09T00:27:47.895Z,95810.00
2024-05-09T00:28:47.928Z,95811.00
2024-05-09T00:29:47.941Z,95812.00
2024-05-09T00:30:47.919Z,95809.00
2024-05-09T00:31:47.961Z,95808.00
2024-05-09T00:32:48.115Z,95808.00
2024-05-09T00:33:48.011Z,95807.00
2024-05-09T00:34:47.916Z,95807.00
2024-05-09T00:35:47.916Z,95809.00
2024-05-09T00:36:47.903Z,95807.00
2024-05-09T00:37:47.924Z,95809.00
2024-05-09T00:38:47.904Z,95806.00
2024-05-09T00:39:47.940Z,95806.00
2024-05-09T00:40:48.001Z,95806.00
2024-05-09T00:41:47.978Z,95805.00
2024-05-09T00:42:47.915Z,95805.00
2024-05-09T00:43:48.009Z,95806.00
2024-05-09T00:44:47.992Z,95806.00
2024-05-09T00:45:48.067Z,95805.00
2024-05-09T00:46:48.186Z,95804.00
2024-05-09T00:47:48.373Z,95805.00
2024-05-09T00:48:48.167Z,95801.00
2024-05-09T00:49:48.238Z,95803.00
2024-05-09T00:50:48.338Z,95802.00
2024-05-09T00:51:48.283Z,95802.00
2024-05-09T00:52:48.361Z,95802.00
2024-05-09T00:53:48.330Z,95799.00
2024-05-09T00:54:48.369Z,95798.00
2024-05-09T00:55:48.457Z,95798.00
2024-05-09T00:56:48.446Z,95797.00
2024-05-09T00:57:48.473Z,95797.00
2024-05-09T00:58:48.538Z,95796.00
2024-05-09T00:59:48.541Z,95797.00
2024-05-09T01:00:48.665Z,95794.00
2024-05-09T01:01:48.756Z,95794.00
2024-05-09T01:02:48.793Z,95793.00
2024-05-09T01:03:51.010Z,95792.00
2024-05-09T01:04:48.973Z,95793.00
2024-05-09T01:05:48.750Z,95791.00
2024-05-09T01:06:48.684Z,95790.00
2024-05-09T01:07:48.721Z,95790.00
2024-05-09T01:08:48.698Z,95789.00
2024-05-09T01:09:48.684Z,95789.00
2024-05-09T01:10:49.027Z,95786.00
2024-05-09T01:11:48.764Z,95787.00
2024-05-09T01:12:48.702Z,95786.00
2024-05-09T01:13:48.764Z,95786.00
2024-05-09T01:14:48.695Z,95785.00
2024-05-09T01:15:48.699Z,95785.00
2024-05-09T01:16:48.748Z,95783.00
2024-05-09T01:17:48.915Z,95783.00
2024-05-09T01:18:48.831Z,95784.00
2024-05-09T01:19:48.807Z,95782.00
2024-05-09T01:20:48.748Z,95785.00
2024-05-09T01:21:48.698Z,95784.00
2024-05-09T01:22:48.720Z,95783.00
2024-05-09T01:23:48.743Z,95784.00
2024-05-09T01:24:48.703Z,95782.00
2024-05-09T01:25:48.763Z,95782.00
2024-05-09T01:26:48.709Z,95783.00
2024-05-09T01:27:48.714Z,95783.00
2024-05-09T01:28:48.741Z,95782.00
2024-05-09T01:29:48.737Z,95783.00
2024-05-09T01:30:48.733Z,95784.00
2024-05-09T01:31:48.810Z,95782.00
2024-05-09T01:32:48.966Z,95783.00
2024-05-09T01:33:48.878Z,95783.00
2024-05-09T01:34:48.788Z,95780.00
2024-05-09T01:35:48.724Z,95782.00
2024-05-09T01:36:48.722Z,95779.00
2024-05-09T01:37:48.766Z,95779.00
2024-05-09T01:38:48.770Z,95778.00
2024-05-09T01:39:48.816Z,95776.00
2024-05-09T01:40:48.867Z,95774.00
2024-05-09T01:41:48.873Z,95774.00
2024-05-09T01:42:48.916Z,95774.00
2024-05-09T01:43:48.972Z,95773.00
2024-05-09T01:44:48.986Z,95773.00
2024-05-09T01:45:49.020Z,95771.00
2024-05-09T01:46:49.085Z,95769.00
2024-05-09T01:47:49.246Z,95771.00
2024-05-09T01:48:49.282Z,95768.00
2024-05-09T01:49:49.232Z,95769.00
2024-05-09T01:50:49.246Z,95767.00
2024-05-09T01:51:49.269Z,95766.00
2024-05-09T01:52:49.330Z,95765.00
2024-05-09T01:53:49.346Z,95768.00
2024-05-09T01:54:49.374Z,95766.00
2024-05-09T01:55:49.473Z,95769.00
2024-05-09T01:56:49.471Z,95768.00
2024-05-09T01:57:49.502Z,95768.00
2024-05-09T01:58:49.581Z,95768.00
2024-05-09T01:59:49.599Z,95767.00
2024-05-09T02:00:49.712Z,95767.00
2024-05-09T02:01:56.702Z,95768.00
2024-05-09T02:02:49.806Z,95767.00
2024-05-09T02:03:49.983Z,95769.00
2024-05-09T02:04:49.826Z,95770.00
2024-05-09T02:05:49.882Z,95769.00
2024-05-09T02:06:49.670Z,95768.00
2024-05-09T02:07:49.726Z,95769.00
2024-05-09T02:08:49.683Z,95768.00
2024-05-09T02:09:49.684Z,95769.00
2024-05-09T02:10:50.499Z,95768.00
2024-05-09T02:11:49.726Z,95769.00
2024-05-09T02:12:49.685Z,95770.00
2024-05-09T02:13:49.713Z,95770.00
2024-05-09T02:14:49.681Z,95769.00
2024-05-09T02:15:49.680Z,95768.00
2024-05-09T02:16:49.756Z,95768.00
2024-05-09T02:17:49.787Z,95767.00
2024-05-09T02:18:49.819Z,95767.00
2024-05-09T02:19:49.777Z,95766.00
2024-05-09T02:20:49.859Z,95764.00
2024-05-09T02:21:49.851Z,95764.00
2024-05-09T02:22:49.919Z,95766.00
2024-05-09T02:23:49.935Z,95764.00
2024-05-09T02:24:49.967Z,95762.00
2024-05-09T02:25:50.053Z,95762.00
2024-05-09T02:26:50.048Z,95763.00
2024-05-09T02:27:50.102Z,95762.00
2024-05-09T02:28:50.160Z,95764.00
2024-05-09T02:29:50.178Z,95763.00
2024-05-09T02:30:50.223Z,95764.00
2024-05-09T02:31:50.312Z,95764.00
2024-05-09T02:32:50.459Z,95763.00
2024-05-09T02:33:50.587Z,95765.00
2024-05-09T02:34:50.416Z,95763.00
2024-05-09T02:35:50.437Z,95761.00
2024-05-09T02:36:50.471Z,95760.00
2024-05-09T02:37:50.603Z,95759.00
2024-05-09T02:38:50.570Z,95758.00
2024-05-09T02:39:50.601Z,95758.00
2024-05-09T02:40:50.671Z,95756.00
2024-05-09T02:41:50.692Z,95759.00
2024-05-09T02:42:50.736Z,95757.00
2024-05-09T02:43:50.827Z,95759.00
2024-05-09T02:44:50.835Z,95757.00
2024-05-09T02:45:50.905Z,95755.00
2024-05-09T02:46:50.944Z,95758.00
2024-05-09T02:47:51.076Z,95756.00
2024-05-09T02:48:51.211Z,95756.00
2024-05-09T02:49:51.231Z,95757.00
2024-05-09T02:50:51.189Z,95760.00
2024-05-09T02:51:51.173Z,95760.00
2024-05-09T02:52:51.299Z,95760.00
2024-05-09T02:53:51.268Z,95759.00
2024-05-09T02:54:51.340Z,95761.00
2024-05-09T02:55:51.361Z,95761.00
2024-05-09T02:56:51.385Z,95761.00
2024-05-09T02:57:51.432Z,95764.00
2024-05-09T02:58:51.489Z,95762.00
2024-05-09T02:59:51.517Z,95765.00
2024-05-09T03:00:51.624Z,95764.00
2024-05-09T03:01:51.714Z,95764.00
2024-05-09T03:02:51.818Z,95763.00
2024-05-09T03:03:51.969Z,95766.00
2024-05-09T03:04:51.851Z,95763.00
2024-05-09T03:05:51.855Z,95764.00
2024-05-09T03:06:51.864Z,95765.00
2024-05-09T03:07:51.938Z,95764.00
2024-05-09T03:08:51.972Z,95765.00
2024-05-09T03:09:52.025Z,95765.00
2024-05-09T03:10:52.139Z,95765.00
2024-05-09T03:11:52.272Z,95765.00
2024-05-09T03:12:52.144Z,95764.00
2024-05-09T03:13:52.249Z,95764.00
2024-05-09T03:14:52.249Z,95764.00
2024-05-09T03:15:52.314Z,95764.00
2024-05-09T03:16:52.440Z,95762.00
2024-05-09T03:17:52.545Z,95763.00
2024-05-09T03:18:52.613Z,95762.00
2024-05-09T03:19:52.594Z,95762.00
2024-05-09T03:20:52.697Z,95765.00
2024-05-09T03:21:52.608Z,95765.00
2024-05-09T03:22:55.502Z,95765.00
2024-05-09T03:23:52.726Z,95766.00
2024-05-09T03:24:52.673Z,95765.00
2024-05-09T03:25:52.820Z,95768.00
2024-05-09T03:26:52.663Z,95767.00
2024-05-09T03:27:52.684Z,95767.00
2024-05-09T03:28:52.695Z,95767.00
2024-05-09T03:29:52.679Z,95770.00
2024-05-09T03:30:52.683Z,95767.00
2024-05-09T03:31:52.840Z,95768.00
2024-05-09T03:32:52.797Z,95769.00
2024-05-09T03:33:52.989Z,95766.00
2024-05-09T03:34:52.827Z,95765.00
2024-05-09T03:35:52.845Z,95765.00
2024-05-09T03:36:52.893Z,95767.00
2024-05-09T03:37:52.979Z,95766.00
2024-05-09T03:38:53.006Z,95764.00
2024-05-09T03:39:53.065Z,95764.00
2024-05-09T03:40:53.176Z,95764.00
2024-05-09T03:41:53.207Z,95767.00
2024-05-09T03:42:53.233Z,95766.00
2024-05-09T03:43:53.396Z,95766.00
2024-05-09T03:44:53.321Z,95767.00
2024-05-09T03:45:53.367Z,95766.00
2024-05-09T03:46:53.461Z,95766.00
2024-05-09T03:47:53.856Z,95763.00
2024-05-09T03:48:53.611Z,95763.00
2024-05-09T03:49:53.597Z,95763.00
2024-05-09T03:50:53.755Z,95763.00
2024-05-09T03:51:53.677Z,95762.00
2024-05-09T03:52:53.745Z,95762.00
2024-05-09T03:53:53.781Z,95764.00
2024-05-09T03:54:53.843Z,95766.00
2024-05-09T03:55:53.974Z,95768.00
2024-05-09T03:56:53.958Z,95769.00
2024-05-09T03:57:54.053Z,95770.00
2024-05-09T03:58:54.103Z,95771.00
2024-05-09T03:59:54.120Z,95773.00
2024-05-09T04:00:54.214Z,95776.00
2024-05-09T04:01:54.384Z,95776.00
2024-05-09T04:02:54.375Z,95778.00
2024-05-09T04:03:54.451Z,95779.00
2024-05-09T04:04:54.631Z,95781.00
2024-05-09T04:05:54.458Z,95783.00
2024-05-09T04:06:54.504Z,95784.00
2024-05-09T04:07:54.566Z,95783.00
2024-05-09T04:08:54.615Z,95784.00
2024-05-09T04:09:54.668Z,95782.00
2024-05-09T04:10:54.757Z,95784.00
2024-05-09T04:11:54.983Z,95781.00
2024-05-09T04:12:54.848Z,95782.00
2024-05-09T04:13:54.978Z,95782.00
2024-05-09T04:14:54.974Z,95781.00
2024-05-09T04:15:55.007Z,95780.00
2024-05-09T04:16:55.098Z,95778.00
2024-05-09T04:17:55.360Z,95781.00
2024-05-09T04:18:55.252Z,95781.00
2024-05-09T04:19:55.302Z,95781.00
2024-05-09T04:20:55.375Z,95781.00
2024-05-09T04:21:55.372Z,95780.00
2024-05-09T04:22:55.476Z,95782.00
2024-05-09T04:23:55.464Z,95783.00
2024-05-09T04:24:55.519Z,95785.00
2024-05-09T04:25:55.618Z,95785.00
2024-05-09T04:26:55.639Z,95785.00
2024-05-09T04:27:55.827Z,95784.00
2024-05-09T04:28:55.813Z,95789.00
2024-05-09T04:29:55.807Z,95787.00
2024-05-09T04:30:55.856Z,95790.00
2024-05-09T04:31:56.004Z,95789.00
2024-05-09T04:32:56.095Z,95790.00
2024-05-09T04:33:56.169Z,95787.00
2024-05-09T04:34:56.123Z,95790.00
2024-05-09T04:36:03.352Z,95788.00
2024-05-09T04:37:04.357Z,95790.00
2024-05-09T04:38:04.444Z,95788.00
2024-05-09T04:39:04.349Z,95789.00
2024-05-09T04:40:07.013Z,95789.00
2024-05-09T04:41:04.520Z,95791.00
2024-05-09T04:42:04.505Z,95792.00
2024-05-09T04:43:04.546Z,95793.00
2024-05-09T04:44:04.651Z,95792.00
2024-05-09T04:45:04.595Z,95795.00
2024-05-09T04:46:04.616Z,95795.00
2024-05-09T04:47:04.749Z,95799.00
2024-05-09T04:48:04.985Z,95801.00
2024-05-09T04:49:04.859Z,95801.00
2024-05-09T04:50:05.653Z,95801.00
2024-05-09T04:51:04.842Z,95802.00
2024-05-09T04:52:04.819Z,95802.00
2024-05-09T04:53:05.297Z,95803.00
2024-05-09T04:54:05.549Z,95802.00
2024-05-09T04:55:04.906Z,95803.00
2024-05-09T04:56:04.983Z,95803.00
2024-05-09T04:57:04.975Z,95805.00
2024-05-09T04:58:05.044Z,95804.00
2024-05-09T04:59:05.075Z,95804.00
2024-05-09T05:00:09.349Z,95803.00
2024-05-09T05:01:05.143Z,95802.00
2024-05-09T05:02:05.216Z,95802.00
2024-05-09T05:03:05.277Z,95804.00
2024-05-09T05:04:05.189Z,95805.00
2024-05-09T05:05:05.193Z,95806.00
2024-05-09T05:06:05.158Z,95806.00
2024-05-09T05:07:05.101Z,95805.00
2024-05-09T05:08:05.324Z,95805.00
2024-05-09T05:09:05.110Z,95805.00
2024-05-09T05:10:05.952Z,95807.00
2024-05-09T05:11:05.175Z,95804.00
2024-05-09T05:12:05.275Z,95804.00
2024-05-09T05:13:05.098Z,95804.00
2024-05-09T05:14:05.290Z,95804.00
2024-05-09T05:15:05.111Z,95806.00
2024-05-09T05:16:05.125Z,95807.00
2024-05-09T05:17:05.139Z,95807.00
2024-05-09T05:18:05.280Z,95806.00
2024-05-09T05:19:07.566Z,95809.00
2024-05-09T05:20:07.155Z,95808.00
2024-05-09T05:21:05.157Z,95807.00
2024-05-09T05:22:05.113Z,95809.00
2024-05-09T05:23:05.185Z,95808.00
2024-05-09T05:24:05.110Z,95809.00
2024-05-09T05:25:05.109Z,95809.00
2024-05-09T05:26:05.255Z,95807.00
2024-05-09T05:27:05.129Z,95808.00
2024-05-09T05:28:05.128Z,95808.00
2024-05-09T05:29:05.145Z,95809.00
2024-05-09T05:30:07.473Z,95808.00
2024-05-09T05:31:05.115Z,95808.00
2024-05-09T05:32:05.290Z,95806.00
2024-05-09T05:33:05.261Z,95806.00
2024-05-09T05:34:05.265Z,95808.00
2024-05-09T05:35:05.207Z,95811.00
2024-05-09T05:36:05.164Z,95810.00
2024-05-09T05:37:05.199Z,95810.00
2024-05-09T05:38:05.312Z,95810.00
2024-05-09T05:39:05.260Z,95812.00
2024-05-09T05:40:05.770Z,95811.00
2024-05-09T05:41:05.347Z,95811.00
2024-05-09T05:42:05.380Z,95808.00
2024-05-09T05:43:05.398Z,95808.00
2024-05-09T05:44:05.478Z,95807.00
2024-05-09T05:45:08.286Z,95806.00
2024-05-09T05:46:05.485Z,95806.00
2024-05-09T05:47:05.540Z,95806.00
2024-05-09T05:48:06.520Z,95806.00
2024-05-09T05:49:05.776Z,95806.00
2024-05-09T05:50:14.476Z,95807.00
2024-05-09T05:51:05.780Z,95809.00
2024-05-09T05:52:05.601Z,95807.00
2024-05-09T05:53:05.691Z,95807.00
2024-05-09T05:54:05.613Z,95807.00
2024-05-09T05:55:05.611Z,95810.00
2024-05-09T05:56:05.683Z,95808.00
2024-05-09T05:57:05.601Z,95809.00
2024-05-09T05:58:05.635Z,95808.00
2024-05-09T05:59:05.661Z,95810.00
2024-05-09T06:00:09.522Z,95811.00
2024-05-09T06:01:05.622Z,95811.00
2024-05-09T06:02:05.754Z,95812.00
2024-05-09T06:03:06.126Z,95812.00
2024-05-09T06:04:05.741Z,95812.00
2024-05-09T06:05:05.780Z,95811.00
2024-05-09T06:06:05.681Z,95812.00
2024-05-09T06:07:05.600Z,95810.00
2024-05-09T06:08:05.663Z,95811.00
2024-05-09T06:09:05.627Z,95812.00
2024-05-09T06:10:11.363Z,95811.00
2024-05-09T06:11:05.761Z,95812.00
2024-05-09T06:12:05.715Z,95807.00
2024-05-09T06:13:05.690Z,95809.00
2024-05-09T06:14:05.723Z,95809.00
2024-05-09T06:15:05.648Z,95808.00
2024-05-09T06:16:05.654Z,95810.00
2024-05-09T06:17:05.714Z,95810.00
2024-05-09T06:18:06.090Z,95810.00
2024-05-09T06:19:05.811Z,95813.00
2024-05-09T06:20:09.071Z,95815.00
2024-05-09T06:21:05.842Z,95815.00
2024-05-09T06:22:05.655Z,95816.00
2024-05-09T06:23:06.169Z,95815.00
2024-05-09T06:24:06.799Z,95818.00
2024-05-09T06:25:05.655Z,95819.00
2024-05-09T06:26:05.763Z,95819.00
2024-05-09T06:27:05.685Z,95821.00
2024-05-09T06:28:05.677Z,95818.00
2024-05-09T06:29:05.686Z,95817.00
2024-05-09T06:31:04.675Z,95815.00
2024-05-09T06:32:05.833Z,95816.00
2024-05-09T06:33:06.277Z,95815.00
2024-05-09T06:34:05.826Z,95816.00
2024-05-09T06:35:05.702Z,95814.00
2024-05-09T06:36:05.681Z,95816.00
2024-05-09T06:37:05.694Z,95817.00
2024-05-09T06:38:05.716Z,95815.00
2024-05-09T06:39:05.668Z,95815.00
2024-05-09T06:40:07.538Z,95815.00
2024-05-09T06:41:05.725Z,95816.00
2024-05-09T06:42:05.686Z,95819.00
2024-05-09T06:43:05.724Z,95820.00
2024-05-09T06:44:05.707Z,95818.00
2024-05-09T06:45:05.696Z,95818.00
2024-05-09T06:46:05.699Z,95819.00
2024-05-09T06:47:05.822Z,95819.00
2024-05-09T06:48:05.923Z,95821.00
2024-05-09T06:49:06.023Z,95820.00
2024-05-09T06:50:10.441Z,95819.00
2024-05-09T06:51:05.754Z,95819.00
2024-05-09T06:52:05.718Z,95819.00
2024-05-09T06:53:05.783Z,95819.00
2024-05-09T06:54:05.737Z,95822.00
2024-05-09T06:55:05.717Z,95821.00
2024-05-09T06:56:05.737Z,95819.00
2024-05-09T06:57:05.729Z,95821.00
2024-05-09T06:58:05.707Z,95818.00
2024-05-09T06:59:05.747Z,95820.00
2024-05-09T07:00:08.290Z,95817.00
2024-05-09T07:01:05.792Z,95818.00
2024-05-09T07:02:05.857Z,95816.00
2024-05-09T07:03:06.241Z,95817.00
2024-05-09T07:04:06.028Z,95816.00
2024-05-09T07:05:05.959Z,95816.00
2024-05-09T07:06:05.897Z,95817.00
2024-05-09T07:07:05.743Z,95816.00
2024-05-09T07:08:05.847Z,95815.00
2024-05-09T07:09:05.929Z,95815.00
2024-05-09T07:10:07.804Z,95814.00
2024-05-09T07:11:05.877Z,95814.00
2024-05-09T07:12:05.780Z,95815.00
2024-05-09T07:13:05.741Z,95814.00
2024-05-09T07:14:06.566Z,95812.00
2024-05-09T07:15:05.726Z,95812.00
2024-05-09T07:16:05.733Z,95812.00
2024-05-09T07:17:05.896Z,95811.00
2024-05-09T07:18:05.908Z,95813.00
2024-05-09T07:19:06.021Z,95813.00
2024-05-09T07:20:08.981Z,95815.00
2024-05-09T07:21:05.772Z,95814.00
2024-05-09T07:22:05.745Z,95812.00
2024-05-09T07:23:05.784Z,95814.00
2024-05-09T07:24:05.741Z,95815.00
2024-05-09T07:25:05.927Z,95814.00
2024-05-09T07:26:05.787Z,95811.00
2024-05-09T07:27:05.764Z,95813.00
2024-05-09T07:28:05.742Z,95810.00
2024-05-09T07:29:05.883Z,95811.00
2024-05-09T07:30:07.409Z,95809.00
2024-05-09T07:31:05.958Z,95807.00
2024-05-09T07:32:06.060Z,95807.00
2024-05-09T07:33:06.214Z,95805.00
2024-05-09T07:34:06.115Z,95806.00
2024-05-09T07:35:05.994Z,95803.00
2024-05-09T07:36:05.977Z,95806.00
2024-05-09T07:37:05.985Z,95805.00
2024-05-09T07:38:06.071Z,95804.00
2024-05-09T07:39:05.999Z,95803.00
2024-05-09T07:40:07.628Z,95803.00
2024-05-09T07:41:06.069Z,95802.00
2024-05-09T07:42:05.997Z,95802.00
2024-05-09T07:43:05.999Z,95802.00
2024-05-09T07:44:06.078Z,95801.00
2024-05-09T07:45:21.575Z,95799.00
2024-05-09T07:47:04.533Z,95797.00
2024-05-09T07:48:14.436Z,95798.00
2024-05-09T07:50:53.400Z,95797.00
2024-05-09T07:53:36.362Z,95793.00
2024-05-09T07:54:06.659Z,95794.00
2024-05-09T07:55:06.093Z,95793.00
2024-05-09T07:56:06.398Z,95793.00
2024-05-09T07:57:06.090Z,95793.00
2024-05-09T07:58:06.063Z,95791.00
2024-05-09T07:59:06.027Z,95791.00
2024-05-09T08:00:06.640Z,95791.00
2024-05-09T08:01:06.750Z,95792.00
2024-05-09T08:02:06.419Z,95790.00
2024-05-09T08:03:06.076Z,95790.00
2024-05-09T08:04:06.159Z,95787.00
2024-05-09T08:05:06.209Z,95789.00
2024-05-09T08:06:06.035Z,95787.00
2024-05-09T08:07:06.159Z,95787.00
2024-05-09T08:08:06.047Z,95788.00
2024-05-09T08:09:11.068Z,95785.00
2024-05-09T08:10:08.043Z,95786.00
2024-05-09T08:11:06.104Z,95785.00
2024-05-09T08:12:06.056Z,95788.00
2024-05-09T08:13:06.213Z,95783.00
2024-05-09T08:14:06.039Z,95785.00
2024-05-09T08:15:06.046Z,95781.00
2024-05-09T08:16:06.222Z,95783.00
2024-05-09T08:17:06.080Z,95782.00
2024-05-09T08:18:06.248Z,95781.00
2024-05-09T08:19:06.241Z,95779.00
2024-05-09T08:20:06.316Z,95782.00
2024-05-09T08:21:06.038Z,95781.00
2024-05-09T08:22:06.085Z,95777.00
2024-05-09T08:23:06.052Z,95776.00
2024-05-09T08:24:06.056Z,95774.00
2024-05-09T08:25:06.146Z,95777.00
2024-05-09T08:26:06.083Z,95777.00
2024-05-09T08:27:06.053Z,95776.00
2024-05-09T08:28:06.143Z,95774.00
2024-05-09T08:29:06.061Z,95776.00
2024-05-09T08:30:07.929Z,95777.00
2024-05-09T08:31:07.207Z,95776.00
2024-05-09T08:32:06.111Z,95774.00
2024-05-09T08:33:07.120Z,95774.00
2024-05-09T08:34:06.552Z,95771.00
2024-05-09T08:35:06.465Z,95771.00
2024-05-09T08:36:06.478Z,95768.00
2024-05-09T08:37:13.143Z,95769.00
2024-05-09T08:38:06.940Z,95768.00
2024-05-09T08:39:06.518Z,95767.00
2024-05-09T08:40:11.046Z,95767.00
2024-05-09T08:41:06.545Z,95766.00
2024-05-09T08:42:06.528Z,95766.00
2024-05-09T08:43:06.665Z,95767.00
2024-05-09T08:44:06.530Z,95766.00
2024-05-09T08:45:06.557Z,95766.00
2024-05-09T08:46:06.554Z,95763.00
2024-05-09T08:47:06.554Z,95764.00
2024-05-09T08:48:06.705Z,95762.00
2024-05-09T08:49:06.790Z,95762.00
2024-05-09T08:50:10.852Z,95759.00
2024-05-09T08:51:06.639Z,95759.00
2024-05-09T08:52:06.790Z,95760.00
2024-05-09T08:53:06.758Z,95759.00
2024-05-09T08:54:06.825Z,95757.00
2024-05-09T08:55:06.980Z,95759.00
2024-05-09T08:56:06.932Z,95759.00
2024-05-09T08:57:07.029Z,95760.00
2024-05-09T08:58:07.174Z,95761.00
2024-05-09T08:59:07.054Z,95763.00
2024-05-09T09:00:12.501Z,95763.00
2024-05-09T09:01:07.279Z,95762.00
2024-05-09T09:02:07.252Z,95761.00
2024-05-09T09:03:07.210Z,95764.00
2024-05-09T09:04:07.345Z,95764.00
2024-05-09T09:05:07.248Z,95763.00
2024-05-09T09:06:07.108Z,95762.00
2024-05-09T09:07:07.142Z,95760.00
2024-05-09T09:08:07.117Z,95760.00
2024-05-09T09:09:07.122Z,95760.00
2024-05-09T09:10:08.719Z,95759.00
2024-05-09T09:11:07.115Z,95759.00
2024-05-09T09:12:08.689Z,95758.00
2024-05-09T09:13:07.341Z,95760.00
2024-05-09T09:14:07.125Z,95760.00
2024-05-09T09:15:07.139Z,95758.00
2024-05-09T09:16:07.197Z,95760.00
2024-05-09T09:17:07.152Z,95759.00
2024-05-09T09:19:06.241Z,95757.00
2024-05-09T09:20:13.952Z,95759.00
2024-05-09T09:21:07.126Z,95756.00
2024-05-09T09:22:07.318Z,95756.00
2024-05-09T09:23:07.140Z,95753.00
2024-05-09T09:24:09.345Z,95751.00
2024-05-09T09:25:07.261Z,95751.00
2024-05-09T09:26:07.129Z,95752.00
2024-05-09T09:27:07.183Z,95751.00
2024-05-09T09:28:07.212Z,95749.00
2024-05-09T09:29:07.125Z,95750.00
2024-05-09T09:30:15.628Z,95748.00
2024-05-09T09:31:07.183Z,95744.00
2024-05-09T09:32:07.159Z,95746.00
2024-05-09T09:33:07.257Z,95742.00
2024-05-09T09:34:07.366Z,95742.00
2024-05-09T09:35:07.192Z,95740.00
2024-05-09T09:36:09.027Z,95734.00
2024-05-09T09:37:07.295Z,95734.00
2024-05-09T09:38:07.145Z,95732.00
2024-05-09T09:39:07.152Z,95727.00
2024-05-09T09:40:07.256Z,95725.00
2024-05-09T09:41:07.271Z,95724.00
2024-05-09T09:42:07.173Z,95719.00
2024-05-09T09:43:07.471Z,95717.00
2024-05-09T09:44:07.170Z,95717.00
2024-05-09T09:45:07.156Z,95713.00
2024-05-09T09:46:09.664Z,95715.00
2024-05-09T09:47:07.411Z,95714.00
2024-05-09T09:48:07.534Z,95713.00
2024-05-09T09:49:07.632Z,95714.00
2024-05-09T09:50:14.152Z,95712.00
2024-05-09T09:51:07.489Z,95710.00
2024-05-09T09:52:09.859Z,95712.00
2024-05-09T09:53:07.553Z,95713.00
2024-05-09T09:54:07.481Z,95716.00
2024-05-09T09:55:07.514Z,95716.00
2024-05-09T09:56:07.471Z,95713.00
2024-05-09T09:57:07.480Z,95713.00
2024-05-09T09:58:09.807Z,95712.00
2024-05-09T09:59:07.629Z,95713.00
2024-05-09T10:00:11.753Z,95712.00
2024-05-09T10:01:07.767Z,95710.00
2024-05-09T10:02:07.854Z,95709.00
2024-05-09T10:03:07.710Z,95710.00
2024-05-09T10:04:07.807Z,95709.00
2024-05-09T10:05:08.246Z,95707.00
2024-05-09T10:06:07.797Z,95708.00
2024-05-09T10:07:07.988Z,95709.00
2024-05-09T10:08:07.924Z,95704.00
2024-05-09T10:09:08.067Z,95705.00
2024-05-09T10:10:10.990Z,95702.00
2024-05-09T10:11:08.115Z,95703.00
2024-05-09T10:12:09.320Z,95702.00
2024-05-09T10:13:08.775Z,95700.00
2024-05-09T10:14:08.124Z,95700.00
2024-05-09T10:15:08.168Z,95700.00
2024-05-09T10:16:08.277Z,95699.00
2024-05-09T10:17:08.347Z,95699.00
2024-05-09T10:18:08.549Z,95699.00
2024-05-09T10:19:08.456Z,95697.00
2024-05-09T10:20:14.853Z,95694.00
2024-05-09T10:21:08.492Z,95694.00
2024-05-09T10:22:08.539Z,95690.00
2024-05-09T10:23:08.476Z,95689.00
2024-05-09T10:24:08.473Z,95688.00
2024-05-09T10:25:08.513Z,95684.00
2024-05-09T10:26:08.546Z,95685.00
2024-05-09T10:27:08.484Z,95683.00
2024-05-09T10:28:08.707Z,95682.00
2024-05-09T10:29:08.464Z,95679.00
2024-05-09T10:30:14.403Z,95678.00
2024-05-09T10:31:08.685Z,95677.00
2024-05-09T10:32:08.485Z,95675.00
2024-05-09T10:33:08.566Z,95677.00
2024-05-09T10:34:08.625Z,95675.00
2024-05-09T10:35:08.550Z,95676.00
2024-05-09T10:36:08.463Z,95671.00
2024-05-09T10:37:08.572Z,95674.00
2024-05-09T10:38:08.491Z,95672.00
2024-05-09T10:39:08.475Z,95675.00
2024-05-09T10:40:14.100Z,95674.00
2024-05-09T10:41:08.485Z,95675.00
2024-05-09T10:42:08.477Z,95677.00
2024-05-09T10:43:08.505Z,95676.00
2024-05-09T10:44:08.480Z,95675.00
2024-05-09T10:45:08.482Z,95673.00
2024-05-09T10:46:08.748Z,95673.00
2024-05-09T10:47:08.540Z,95673.00
2024-05-09T10:48:08.596Z,95673.00
2024-05-09T10:49:08.679Z,95669.00
2024-05-09T10:50:18.018Z,95669.00
2024-05-09T10:51:08.492Z,95673.00
2024-05-09T10:52:08.689Z,95670.00
2024-05-09T10:53:08.509Z,95668.00
2024-05-09T10:54:08.493Z,95667.00
2024-05-09T10:55:08.534Z,95669.00
2024-05-09T10:56:08.506Z,95668.00
2024-05-09T10:57:08.495Z,95668.00
2024-05-09T10:58:08.670Z,95664.00
2024-05-09T10:59:08.535Z,95661.00
2024-05-09T11:00:15.610Z,95662.00
2024-05-09T11:01:08.775Z,95659.00
2024-05-09T11:02:08.782Z,95658.00
2024-05-09T11:03:08.552Z,95660.00
2024-05-09T11:04:08.750Z,95655.00
2024-05-09T11:05:08.536Z,95656.00
2024-05-09T11:06:08.515Z,95658.00
2024-05-09T11:07:08.589Z,95655.00
2024-05-09T11:08:08.519Z,95653.00
2024-05-09T11:09:08.539Z,95652.00
2024-05-09T11:11:08.625Z,95658.00
2024-05-09T11:12:08.639Z,95656.00
2024-05-09T11:13:08.645Z,95654.00
2024-05-09T11:14:08.527Z,95651.00
2024-05-09T11:15:08.543Z,95648.00
2024-05-09T11:16:08.559Z,95650.00
2024-05-09T11:17:08.723Z,95653.00
2024-05-09T11:18:08.740Z,95653.00
2024-05-09T11:19:08.827Z,95652.00
2024-05-09T11:20:16.620Z,95650.00
2024-05-09T11:21:08.719Z,95651.00
2024-05-09T11:22:08.858Z,95651.00
2024-05-09T11:23:08.721Z,95650.00
2024-05-09T11:24:11.005Z,95650.00
2024-05-09T11:25:08.846Z,95649.00
2024-05-09T11:26:08.725Z,95650.00
2024-05-09T11:27:08.718Z,95650.00
2024-05-09T11:28:08.779Z,95650.00
2024-05-09T11:29:08.719Z,95649.00
2024-05-09T11:30:14.218Z,95651.00
2024-05-09T11:31:09.642Z,95651.00
2024-05-09T11:32:08.983Z,95652.00
2024-05-09T11:33:08.982Z,95653.00
2024-05-09T11:34:09.037Z,95653.00
2024-05-09T11:35:08.997Z,95652.00
2024-05-09T11:36:09.029Z,95655.00
2024-05-09T11:37:09.136Z,95656.00
2024-05-09T11:38:09.139Z,95656.00
2024-05-09T11:39:09.187Z,95656.00
2024-05-09T11:40:13.846Z,95657.00
2024-05-09T11:41:09.314Z,95654.00
2024-05-09T11:42:09.258Z,95652.00
2024-05-09T11:43:09.280Z,95652.00
2024-05-09T11:44:09.261Z,95652.00
2024-05-09T11:45:09.256Z,95651.00
2024-05-09T11:46:09.307Z,95648.00
2024-05-09T11:47:09.292Z,95650.00
2024-05-09T11:48:09.381Z,95647.00
2024-05-09T11:49:09.584Z,95647.00
2024-05-09T11:50:15.833Z,95645.00
2024-05-09T11:51:09.284Z,95642.00
2024-05-09T11:52:09.454Z,95639.00